Terminal Aerodrome Forecast
Issued by NWS Shreveport, LA

Home | Current Version | Previous Version | Text Only | Print | Product List | Glossary On
Versions: 1 2 3 4 5 6 7 8 9 10 11 12 13 14 15 16 17 18 19
180
FTUS44 KSHV 280532
TAFTYR
TAF
KTYR 280532Z 2806/2906 17011KT P6SM SCT250
     FM281000 17012KT P6SM BKN025
     FM281200 19012G20KT P6SM VCSH SCT035 OVC150
     FM282100 22008KT P6SM VCTS OVC050CB
     FM290300 02004KT P6SM OVC050=

USA.gov is the U.S. government's official web portal to all federal, state and local government web resources and services.